createdAt,value
2017-10-08T00:01:05.728Z,6.67
2017-10-08T00:03:33.561Z,5.00
2017-10-08T00:06:01.366Z,5.20
2017-10-08T00:08:29.196Z,4.20
2017-10-08T00:10:57.009Z,4.93
2017-10-08T00:13:24.801Z,4.50
2017-10-08T00:15:52.641Z,3.83
2017-10-08T00:18:20.475Z,3.77
2017-10-08T00:20:48.296Z,6.97
2017-10-08T00:23:16.108Z,4.67
2017-10-08T00:25:43.928Z,4.70
2017-10-08T00:28:11.771Z,4.60
2017-10-08T00:30:39.604Z,2.73
2017-10-08T00:33:07.439Z,3.20
2017-10-08T00:35:35.272Z,2.40
2017-10-08T00:38:03.098Z,3.57
2017-10-08T00:40:30.902Z,3.07
2017-10-08T00:42:58.728Z,2.43
2017-10-08T00:45:26.560Z,2.70
2017-10-08T00:47:54.373Z,2.53
2017-10-08T00:50:22.192Z,2.80
2017-10-08T00:52:50.013Z,2.70
2017-10-08T00:55:17.841Z,3.90
2017-10-08T00:57:45.647Z,2.43
2017-10-08T01:00:13.485Z,2.77
2017-10-08T01:02:41.312Z,2.60
2017-10-08T01:05:09.137Z,2.47
2017-10-08T01:07:36.945Z,2.67
2017-10-08T01:10:04.801Z,2.00
2017-10-08T01:12:32.638Z,1.73
2017-10-08T01:15:00.453Z,2.30
2017-10-08T01:17:28.284Z,2.30
2017-10-08T01:19:56.096Z,1.33
2017-10-08T01:22:23.926Z,1.70
2017-10-08T01:24:51.746Z,2.60
2017-10-08T01:27:19.585Z,2.40
2017-10-08T01:29:47.393Z,3.00
2017-10-08T01:32:15.224Z,2.20
2017-10-08T01:34:43.049Z,2.60
2017-10-08T01:37:10.890Z,3.20
2017-10-08T01:39:38.720Z,4.70
2017-10-08T01:42:06.545Z,4.37
2017-10-08T01:44:34.353Z,5.37
2017-10-08T01:47:02.170Z,4.60
2017-10-08T01:49:29.984Z,3.90
2017-10-08T01:51:57.809Z,4.63
2017-10-08T01:54:25.645Z,5.60
2017-10-08T01:56:53.488Z,5.13
2017-10-08T01:59:21.328Z,5.53
2017-10-08T02:01:49.216Z,4.93
2017-10-08T02:04:17.029Z,6.13
2017-10-08T02:06:44.836Z,6.33
2017-10-08T02:09:12.682Z,5.50
2017-10-08T02:11:40.510Z,5.50
2017-10-08T02:14:08.357Z,4.73
2017-10-08T02:16:36.172Z,6.47
2017-10-08T02:19:04.020Z,5.20
2017-10-08T02:21:31.837Z,4.80
2017-10-08T02:23:59.648Z,4.43
2017-10-08T02:26:27.456Z,3.43
2017-10-08T02:28:55.279Z,3.47
2017-10-08T02:31:23.093Z,2.27
2017-10-08T02:33:50.911Z,2.40
2017-10-08T02:36:18.725Z,2.17
2017-10-08T02:38:46.535Z,2.67
2017-10-08T02:41:14.361Z,2.23
2017-10-08T02:43:42.187Z,1.90
2017-10-08T02:46:10.002Z,2.50
2017-10-08T02:48:37.828Z,2.40
2017-10-08T02:51:05.668Z,1.73
2017-10-08T02:53:33.481Z,2.43
2017-10-08T02:56:01.298Z,2.03
2017-10-08T02:58:29.121Z,1.97
2017-10-08T03:00:56.956Z,2.50
2017-10-08T03:03:24.749Z,2.73
2017-10-08T03:05:52.565Z,2.20
2017-10-08T03:08:20.398Z,1.80
2017-10-08T03:10:48.213Z,2.50
2017-10-08T03:13:16.029Z,1.90
2017-10-08T03:15:43.861Z,2.30
2017-10-08T03:18:11.714Z,2.00
2017-10-08T03:20:39.529Z,2.50
2017-10-08T03:23:07.393Z,1.77
2017-10-08T03:25:35.212Z,1.90
2017-10-08T03:28:03.022Z,1.50
2017-10-08T03:30:30.858Z,2.00
2017-10-08T03:32:58.693Z,2.00
2017-10-08T03:35:26.524Z,1.77
2017-10-08T03:37:54.360Z,1.53
2017-10-08T03:40:22.164Z,1.50
2017-10-08T03:42:49.991Z,1.67
2017-10-08T03:45:17.833Z,0.93
2017-10-08T03:47:45.664Z,1.63
2017-10-08T03:50:13.479Z,2.00
2017-10-08T03:52:41.296Z,1.93
2017-10-08T03:55:09.157Z,1.30
2017-10-08T03:57:36.993Z,2.10
2017-10-08T04:00:04.825Z,1.80
2017-10-08T04:02:32.696Z,1.60
2017-10-08T04:05:00.528Z,2.03
2017-10-08T04:07:28.365Z,2.00
2017-10-08T04:09:56.216Z,1.60
2017-10-08T04:12:24.045Z,1.33
2017-10-08T04:14:51.873Z,1.50
2017-10-08T04:17:19.705Z,1.80
2017-10-08T04:19:47.569Z,1.67
2017-10-08T04:22:15.390Z,1.30
2017-10-08T04:24:43.193Z,1.67
2017-10-08T04:27:11.061Z,1.20
2017-10-08T04:29:38.897Z,1.17
2017-10-08T04:32:06.736Z,2.23
2017-10-08T04:34:34.559Z,1.63
2017-10-08T04:37:02.384Z,1.67
2017-10-08T04:39:30.216Z,2.17
2017-10-08T04:41:58.037Z,1.73
2017-10-08T04:44:25.873Z,2.40
2017-10-08T04:46:53.700Z,2.23
2017-10-08T04:49:21.545Z,1.70
2017-10-08T04:51:49.357Z,1.80
2017-10-08T04:54:17.185Z,1.93
2017-10-08T04:56:44.990Z,1.87
2017-10-08T04:59:12.831Z,1.73
2017-10-08T05:01:40.653Z,1.90
2017-10-08T05:04:08.485Z,1.90
2017-10-08T05:06:36.311Z,2.37
2017-10-08T05:09:04.137Z,1.83
2017-10-08T05:11:31.937Z,1.50
2017-10-08T05:13:59.764Z,1.80
2017-10-08T05:16:27.711Z,1.57
2017-10-08T05:18:55.607Z,2.20
2017-10-08T05:21:23.473Z,2.40
2017-10-08T05:23:51.310Z,2.00
2017-10-08T05:26:19.153Z,1.80
2017-10-08T05:28:46.968Z,2.33
2017-10-08T05:31:14.812Z,2.00
2017-10-08T05:33:42.623Z,1.80
2017-10-08T05:36:10.440Z,1.43
2017-10-08T05:38:38.317Z,2.20
2017-10-08T05:41:06.146Z,2.73
2017-10-08T05:43:33.944Z,4.40
2017-10-08T05:46:01.756Z,2.67
2017-10-08T05:48:29.557Z,3.30
2017-10-08T05:50:57.373Z,1.83
2017-10-08T05:53:25.184Z,2.33
2017-10-08T05:55:53.018Z,2.70
2017-10-08T05:58:20.849Z,2.30
2017-10-08T06:00:48.678Z,2.77
2017-10-08T06:03:17.379Z,2.40
2017-10-08T06:05:45.438Z,2.33
2017-10-08T06:08:13.265Z,4.17
2017-10-08T06:10:41.083Z,2.33
2017-10-08T06:13:08.934Z,1.90
2017-10-08T06:15:36.763Z,2.03
2017-10-08T06:18:04.575Z,2.30
2017-10-08T06:20:32.396Z,3.33
2017-10-08T06:23:00.216Z,2.70
2017-10-08T06:25:28.044Z,2.50
2017-10-08T06:27:55.937Z,2.40
2017-10-08T06:30:23.764Z,2.23
2017-10-08T06:32:51.584Z,2.30
2017-10-08T06:35:19.494Z,3.63
2017-10-08T06:37:47.314Z,3.30
2017-10-08T06:40:15.117Z,3.30
2017-10-08T06:42:42.949Z,3.50
2017-10-08T06:45:10.776Z,3.10
2017-10-08T06:47:38.636Z,2.97
2017-10-08T06:50:06.452Z,4.23
2017-10-08T06:52:34.276Z,3.43
2017-10-08T06:55:02.098Z,3.17
2017-10-08T06:57:29.980Z,2.60
2017-10-08T06:59:57.825Z,2.83
2017-10-08T07:02:25.697Z,3.20
2017-10-08T07:04:53.515Z,2.17
2017-10-08T07:07:21.353Z,2.10
2017-10-08T07:09:49.172Z,2.80
2017-10-08T07:12:16.996Z,3.27
2017-10-08T07:14:44.802Z,2.47
2017-10-08T07:17:12.662Z,2.00
2017-10-08T07:19:40.520Z,2.23
2017-10-08T07:22:08.349Z,2.43
2017-10-08T07:24:36.197Z,2.60
2017-10-08T07:27:04.025Z,2.73
2017-10-08T07:29:31.855Z,2.30
2017-10-08T07:31:59.689Z,2.60
2017-10-08T07:34:27.495Z,3.50
2017-10-08T07:36:55.306Z,3.10
2017-10-08T07:39:23.134Z,2.43
2017-10-08T07:41:50.944Z,2.67
2017-10-08T07:44:18.760Z,2.20
2017-10-08T07:46:46.574Z,2.20
2017-10-08T07:49:14.399Z,2.90
2017-10-08T07:51:42.217Z,2.30
2017-10-08T07:54:10.045Z,2.40
2017-10-08T07:56:37.844Z,2.53
2017-10-08T07:59:05.665Z,2.70
2017-10-08T08:01:33.472Z,2.40
2017-10-08T08:04:01.300Z,2.50
2017-10-08T08:06:29.104Z,1.90
2017-10-08T08:08:56.953Z,2.03
2017-10-08T08:11:24.768Z,2.63
2017-10-08T08:13:52.584Z,2.40
2017-10-08T08:16:20.389Z,2.53
2017-10-08T08:18:48.197Z,3.03
2017-10-08T08:21:16.005Z,3.30
2017-10-08T08:23:43.842Z,2.37
2017-10-08T08:26:11.665Z,3.20
2017-10-08T08:28:39.488Z,2.20
2017-10-08T08:31:07.313Z,1.50
2017-10-08T08:33:35.121Z,1.90
2017-10-08T08:36:02.940Z,1.97
2017-10-08T08:38:30.765Z,1.80
2017-10-08T08:40:58.593Z,1.53
2017-10-08T08:43:26.445Z,1.80
2017-10-08T08:45:54.280Z,1.20
2017-10-08T08:48:22.120Z,1.43
2017-10-08T08:50:49.973Z,1.80
2017-10-08T08:53:17.796Z,1.70
2017-10-08T08:55:45.632Z,1.67
2017-10-08T08:58:13.448Z,3.70
2017-10-08T09:00:41.268Z,2.30
2017-10-08T09:03:09.108Z,1.70
2017-10-08T09:05:36.928Z,1.57
2017-10-08T09:08:04.762Z,1.80
2017-10-08T09:10:32.600Z,1.27
2017-10-08T09:13:00.428Z,1.40
2017-10-08T09:15:28.237Z,1.10
2017-10-08T09:17:56.062Z,1.23
2017-10-08T09:20:23.865Z,2.00
2017-10-08T09:22:51.719Z,1.40
2017-10-08T09:25:19.552Z,1.10
2017-10-08T09:27:47.412Z,1.03
2017-10-08T09:30:15.233Z,1.30
2017-10-08T09:32:43.073Z,2.20
2017-10-08T09:35:10.909Z,1.80
2017-10-08T09:37:38.743Z,1.27
2017-10-08T09:40:06.563Z,1.10
2017-10-08T09:42:34.405Z,1.33
2017-10-08T09:45:02.232Z,1.57
2017-10-08T09:47:30.042Z,1.40
2017-10-08T09:49:57.873Z,1.80
2017-10-08T09:52:24.306Z,2.00
2017-10-08T09:54:50.391Z,1.03
2017-10-08T09:57:16.682Z,1.90
2017-10-08T09:59:42.736Z,1.27
2017-10-08T10:02:08.775Z,1.63
2017-10-08T10:04:34.860Z,0.90
2017-10-08T10:07:00.908Z,1.20
2017-10-08T10:09:26.979Z,1.17
2017-10-08T10:11:53.021Z,1.10
2017-10-08T10:14:19.834Z,1.07
2017-10-08T10:16:45.882Z,0.87
2017-10-08T10:19:11.953Z,0.73
2017-10-08T10:21:38.039Z,0.80
2017-10-08T10:24:04.080Z,1.23
2017-10-08T10:26:30.873Z,0.90
2017-10-08T10:28:56.949Z,0.80
2017-10-08T10:31:23.025Z,1.33
2017-10-08T10:33:49.103Z,1.20
2017-10-08T10:36:15.155Z,0.90
2017-10-08T10:38:41.968Z,1.30
2017-10-08T10:41:08.022Z,0.80
2017-10-08T10:43:34.064Z,1.47
2017-10-08T10:46:00.129Z,1.03
2017-10-08T10:48:26.173Z,1.00
2017-10-08T10:50:54.002Z,1.23
2017-10-08T10:53:20.047Z,0.90
2017-10-08T10:55:46.120Z,1.10
2017-10-08T10:58:12.165Z,1.20
2017-10-08T11:00:38.221Z,0.83
2017-10-08T11:03:04.266Z,0.77
2017-10-08T11:05:30.321Z,1.00
2017-10-08T11:07:56.749Z,0.80
2017-10-08T11:10:22.812Z,1.50
2017-10-08T11:12:48.889Z,1.00
2017-10-08T11:15:14.946Z,1.07
2017-10-08T11:17:41.774Z,1.27
2017-10-08T11:20:08.580Z,1.33
2017-10-08T11:22:34.645Z,0.93
2017-10-08T11:25:02.490Z,1.30
2017-10-08T11:27:28.553Z,1.17
2017-10-08T11:29:54.604Z,0.70
2017-10-08T11:32:20.749Z,1.13
2017-10-08T11:34:46.807Z,1.90
2017-10-08T11:37:13.606Z,1.60
2017-10-08T11:39:40.046Z,2.00
2017-10-08T11:42:06.145Z,0.73
2017-10-08T11:44:32.201Z,0.80
2017-10-08T11:46:58.253Z,1.00
2017-10-08T11:49:24.321Z,0.90
2017-10-08T11:51:50.406Z,1.77
2017-10-08T11:54:17.233Z,0.90
2017-10-08T11:56:44.041Z,1.83
2017-10-08T11:59:10.077Z,0.90
2017-10-08T12:01:36.190Z,1.90
2017-10-08T12:04:02.258Z,1.40
2017-10-08T12:06:28.314Z,1.30
2017-10-08T12:08:54.376Z,1.30
2017-10-08T12:11:20.429Z,1.43
2017-10-08T12:13:46.489Z,1.50
2017-10-08T12:16:12.552Z,1.63
2017-10-08T12:18:38.622Z,1.70
2017-10-08T12:21:06.428Z,1.00
2017-10-08T12:23:34.264Z,1.40
2017-10-08T12:26:02.076Z,1.30
2017-10-08T12:28:29.895Z,1.53
2017-10-08T12:30:57.714Z,1.07
2017-10-08T12:33:25.537Z,1.20
2017-10-08T12:35:53.360Z,0.80
2017-10-08T12:38:21.176Z,1.30
2017-10-08T12:40:49.015Z,1.43
2017-10-08T12:43:16.849Z,1.90
2017-10-08T12:45:44.644Z,1.10
2017-10-08T12:48:12.478Z,0.80
2017-10-08T12:50:40.303Z,1.00
2017-10-08T12:53:08.114Z,1.03
2017-10-08T12:55:35.954Z,1.07
2017-10-08T12:58:03.765Z,1.10
2017-10-08T13:00:31.589Z,0.90
2017-10-08T13:02:57.607Z,1.30
2017-10-08T13:05:24.385Z,1.47
2017-10-08T13:07:50.464Z,0.70
2017-10-08T13:10:16.525Z,1.23
2017-10-08T13:12:42.545Z,1.37
2017-10-08T13:15:11.010Z,0.90
2017-10-08T13:17:38.823Z,0.80
2017-10-08T13:20:06.638Z,1.00
2017-10-08T13:22:34.479Z,0.77
2017-10-08T13:25:02.296Z,1.20
2017-10-08T13:27:30.142Z,1.37
2017-10-08T13:29:57.997Z,1.30
2017-10-08T13:32:25.846Z,1.20
2017-10-08T13:34:53.697Z,1.50
2017-10-08T13:37:21.616Z,0.90
2017-10-08T13:39:49.448Z,0.80
2017-10-08T13:42:17.330Z,1.40
2017-10-08T13:44:45.149Z,1.10
2017-10-08T13:47:12.971Z,1.20
2017-10-08T13:49:40.788Z,1.13
2017-10-08T13:52:08.628Z,1.00
2017-10-08T13:54:36.472Z,0.70
2017-10-08T13:57:04.446Z,0.97
2017-10-08T13:59:33.324Z,1.00
2017-10-08T14:02:01.171Z,0.93
2017-10-08T14:04:28.976Z,1.17
2017-10-08T14:06:56.868Z,1.07
2017-10-08T14:09:24.739Z,1.27
2017-10-08T14:11:52.573Z,1.17
2017-10-08T14:14:20.417Z,2.23
2017-10-08T14:16:48.615Z,1.00
2017-10-08T14:19:16.890Z,1.43
2017-10-08T14:21:44.933Z,2.10
2017-10-08T14:24:12.795Z,2.10
2017-10-08T14:26:40.697Z,1.43
2017-10-08T14:29:08.546Z,1.93
2017-10-08T14:31:36.555Z,1.60
2017-10-08T14:34:04.543Z,1.33
2017-10-08T14:36:32.446Z,1.37
2017-10-08T14:39:00.931Z,1.10
2017-10-08T14:41:28.888Z,1.40
2017-10-08T14:43:56.704Z,1.63
2017-10-08T14:46:24.516Z,1.50
2017-10-08T14:48:52.349Z,1.17
2017-10-08T14:51:20.169Z,1.60
2017-10-08T14:53:47.989Z,1.00
2017-10-08T14:56:15.819Z,1.50
2017-10-08T14:58:43.657Z,1.23
2017-10-08T15:01:11.486Z,1.20
2017-10-08T15:03:39.325Z,2.10
2017-10-08T15:06:07.193Z,2.53
2017-10-08T15:08:35.022Z,1.50
2017-10-08T15:11:02.870Z,1.43
2017-10-08T15:13:30.713Z,1.23
2017-10-08T15:15:58.551Z,1.50
2017-10-08T15:18:26.381Z,1.73
2017-10-08T15:20:54.200Z,1.97
2017-10-08T15:23:22.274Z,1.73
2017-10-08T15:25:50.194Z,1.30
2017-10-08T15:28:18.112Z,2.70
2017-10-08T15:30:45.968Z,1.73
2017-10-08T15:33:13.797Z,2.60
2017-10-08T15:35:41.627Z,1.90
2017-10-08T15:38:09.447Z,2.33
2017-10-08T15:40:37.280Z,1.87
2017-10-08T15:43:05.100Z,1.73
2017-10-08T15:45:32.980Z,1.90
2017-10-08T15:48:00.899Z,1.53
2017-10-08T15:50:28.721Z,2.10
2017-10-08T15:52:56.541Z,1.90
2017-10-08T15:55:24.358Z,1.90
2017-10-08T15:57:52.173Z,2.27
2017-10-08T16:00:20.036Z,2.10
2017-10-08T16:02:47.903Z,2.30
2017-10-08T16:05:15.744Z,1.80
2017-10-08T16:07:43.544Z,2.00
2017-10-08T16:10:11.356Z,1.90
2017-10-08T16:12:39.202Z,1.97
2017-10-08T16:15:07.015Z,1.53
2017-10-08T16:17:34.845Z,1.93
2017-10-08T16:20:02.673Z,2.10
2017-10-08T16:22:30.499Z,1.70
2017-10-08T16:24:58.349Z,2.00
2017-10-08T16:27:26.205Z,2.17
2017-10-08T16:29:54.033Z,2.63
2017-10-08T16:32:21.975Z,1.87
2017-10-08T16:34:49.838Z,2.23
2017-10-08T16:37:32.623Z,2.20
2017-10-08T16:40:00.444Z,2.30
2017-10-08T16:42:28.255Z,2.60
2017-10-08T16:44:56.077Z,2.27
2017-10-08T16:47:23.893Z,2.10
2017-10-08T16:49:51.745Z,2.47
2017-10-08T16:52:19.560Z,2.53
2017-10-08T16:54:47.418Z,2.80
2017-10-08T16:57:15.252Z,2.43
2017-10-08T16:59:43.092Z,2.73
2017-10-08T17:02:10.908Z,2.50
2017-10-08T17:04:38.757Z,2.90
2017-10-08T17:07:06.581Z,2.93
2017-10-08T17:09:34.387Z,3.43
2017-10-08T17:12:02.188Z,2.90
2017-10-08T17:14:30.058Z,3.27
2017-10-08T17:16:57.888Z,2.93
2017-10-08T17:19:25.700Z,3.53
2017-10-08T17:21:53.517Z,2.97
2017-10-08T17:24:21.357Z,3.03
2017-10-08T17:26:49.186Z,3.87
2017-10-08T17:29:17.002Z,3.50
2017-10-08T17:31:44.820Z,3.10
2017-10-08T17:34:12.625Z,3.27
2017-10-08T17:36:40.469Z,4.00
2017-10-08T17:39:08.287Z,4.70
2017-10-08T17:41:36.112Z,4.00
2017-10-08T17:44:03.944Z,3.70
2017-10-08T17:46:31.757Z,4.43
2017-10-08T17:48:59.563Z,5.07
2017-10-08T17:51:27.402Z,6.53
2017-10-08T17:53:55.317Z,6.20
2017-10-08T17:56:23.138Z,5.80
2017-10-08T17:58:50.957Z,6.13
2017-10-08T18:01:18.793Z,7.20
2017-10-08T18:03:46.604Z,6.77
2017-10-08T18:06:14.440Z,6.13
2017-10-08T18:08:42.249Z,5.70
2017-10-08T18:11:10.096Z,5.70
2017-10-08T18:13:37.925Z,5.10
2017-10-08T18:16:05.749Z,5.43
2017-10-08T18:18:33.572Z,4.77
2017-10-08T18:21:01.392Z,5.40
2017-10-08T18:23:29.205Z,4.67
2017-10-08T18:25:57.018Z,5.43
2017-10-08T18:28:24.832Z,5.27
2017-10-08T18:30:52.658Z,5.17
2017-10-08T18:33:20.477Z,5.53
2017-10-08T18:35:48.304Z,5.33
2017-10-08T18:38:16.258Z,4.87
2017-10-08T18:40:44.077Z,4.77
2017-10-08T18:43:11.897Z,5.40
2017-10-08T18:45:39.720Z,5.27
2017-10-08T18:48:07.542Z,4.50
2017-10-08T18:50:35.353Z,5.13
2017-10-08T18:53:03.165Z,6.53
2017-10-08T18:55:30.973Z,6.10
2017-10-08T18:57:58.793Z,6.40
2017-10-08T19:00:26.609Z,6.77
2017-10-08T19:02:54.429Z,6.43
2017-10-08T19:05:22.336Z,7.00
2017-10-08T19:07:50.176Z,7.33
2017-10-08T19:10:17.977Z,6.73
2017-10-08T19:12:45.789Z,7.80
2017-10-08T19:15:13.629Z,7.40
2017-10-08T19:17:41.461Z,6.57
2017-10-08T19:20:09.277Z,7.03
2017-10-08T19:22:37.100Z,7.10
2017-10-08T19:25:04.945Z,7.13
2017-10-08T19:27:32.744Z,6.80
2017-10-08T19:30:00.564Z,7.90
2017-10-08T19:32:28.397Z,8.50
2017-10-08T19:34:56.210Z,8.93
2017-10-08T19:37:24.033Z,9.13
2017-10-08T19:39:51.856Z,8.03
2017-10-08T19:42:19.673Z,9.07
2017-10-08T19:44:47.493Z,10.37
2017-10-08T19:47:15.309Z,8.53
2017-10-08T19:49:43.110Z,7.17
2017-10-08T19:52:17.948Z,7.20
2017-10-08T19:54:45.784Z,7.37
2017-10-08T19:57:13.637Z,6.93
2017-10-08T19:59:41.461Z,6.20
2017-10-08T20:02:09.307Z,6.83
2017-10-08T20:04:37.136Z,7.10
2017-10-08T20:07:04.960Z,7.07
2017-10-08T20:09:32.813Z,6.77
2017-10-08T20:12:00.672Z,7.10
2017-10-08T20:14:28.520Z,7.00
2017-10-08T20:16:56.330Z,6.07
2017-10-08T20:19:24.168Z,7.90
2017-10-08T20:21:52.023Z,6.60
2017-10-08T20:24:19.857Z,6.93
2017-10-08T20:26:47.682Z,7.63
2017-10-08T20:29:15.509Z,7.60
2017-10-08T20:31:43.334Z,6.70
2017-10-08T20:34:11.147Z,6.30
2017-10-08T20:36:39.769Z,6.80
2017-10-08T20:39:07.589Z,7.30
2017-10-08T20:41:35.397Z,6.30
2017-10-08T20:44:03.216Z,6.47
2017-10-08T20:46:31.054Z,6.50
2017-10-08T20:48:58.887Z,7.47
2017-10-08T20:51:26.714Z,7.13
2017-10-08T20:53:54.549Z,7.10
2017-10-08T20:56:22.376Z,7.80
2017-10-08T20:58:50.209Z,8.80
2017-10-08T21:01:18.033Z,7.60
2017-10-08T21:03:45.845Z,7.17
2017-10-08T21:06:13.706Z,7.73
2017-10-08T21:08:41.538Z,8.50
2017-10-08T21:11:09.410Z,7.80
2017-10-08T21:13:37.255Z,7.90
2017-10-08T21:16:05.105Z,8.60
2017-10-08T21:18:32.931Z,6.43
2017-10-08T21:21:00.742Z,6.83
2017-10-08T21:23:28.557Z,8.10
2017-10-08T21:25:56.382Z,7.40
2017-10-08T21:28:24.224Z,6.80
2017-10-08T21:30:52.046Z,7.57
2017-10-08T21:33:19.856Z,7.00
2017-10-08T21:35:47.706Z,7.20
2017-10-08T21:38:15.568Z,6.60
2017-10-08T21:40:43.411Z,7.00
2017-10-08T21:43:11.240Z,7.40
2017-10-08T21:45:39.070Z,6.70
2017-10-08T21:48:06.892Z,6.67
2017-10-08T21:50:34.726Z,7.67
2017-10-08T21:53:02.557Z,6.83
2017-10-08T21:55:30.387Z,6.23
2017-10-08T21:57:58.207Z,7.03
2017-10-08T22:00:26.042Z,6.77
2017-10-08T22:02:53.896Z,6.97
2017-10-08T22:05:21.711Z,7.03
2017-10-08T22:07:56.542Z,7.03
2017-10-08T22:10:24.346Z,7.37
2017-10-08T22:12:52.147Z,6.23
2017-10-08T22:15:19.993Z,6.60
2017-10-08T22:17:47.802Z,5.77
2017-10-08T22:20:15.615Z,5.83
2017-10-08T22:22:43.439Z,5.87
2017-10-08T22:25:11.268Z,6.40
2017-10-08T22:27:39.100Z,8.37
2017-10-08T22:30:07.036Z,5.70
2017-10-08T22:32:34.848Z,6.10
2017-10-08T22:35:02.677Z,6.17
2017-10-08T22:37:30.500Z,6.87
2017-10-08T22:39:58.321Z,7.63
2017-10-08T22:42:26.137Z,6.60
2017-10-08T22:44:53.996Z,6.07
2017-10-08T22:47:21.808Z,5.53
2017-10-08T22:49:49.650Z,5.40
2017-10-08T22:52:17.496Z,6.33
2017-10-08T22:54:45.421Z,5.20
2017-10-08T22:57:13.225Z,5.20
2017-10-08T22:59:41.093Z,5.83
2017-10-08T23:02:08.908Z,5.10
2017-10-08T23:04:36.762Z,5.43
2017-10-08T23:07:04.577Z,5.97
2017-10-08T23:09:32.392Z,8.03
2017-10-08T23:12:00.214Z,5.40
2017-10-08T23:14:28.045Z,5.70
2017-10-08T23:16:55.881Z,6.20
2017-10-08T23:19:23.696Z,5.50
2017-10-08T23:21:51.564Z,5.00
2017-10-08T23:24:19.377Z,5.27
2017-10-08T23:26:47.217Z,5.90
2017-10-08T23:29:15.032Z,4.87
2017-10-08T23:31:42.847Z,5.70
2017-10-08T23:34:10.652Z,5.40
2017-10-08T23:36:38.478Z,5.97
2017-10-08T23:39:06.264Z,6.23
2017-10-08T23:41:40.370Z,5.90
2017-10-08T23:44:08.178Z,5.33
2017-10-08T23:46:35.999Z,5.87
2017-10-08T23:49:03.823Z,6.37
2017-10-08T23:51:31.697Z,5.70
2017-10-08T23:53:59.501Z,5.43
2017-10-08T23:56:27.324Z,8.23
2017-10-08T23:58:55.134Z,5.40
